Delray Beach, FL

8:51 PM EDT on August 02, 2015 (GMT -0400)
Lake Ida - Garden House | | Change Station
CLOSE
Current Station
Personal Weather Station
Location: Delray Beach, FL
Elevation: 0 ft
Nearby Weather Stations

Elev 0 ft 26.48 °N, 80.07 °W | Updated 7 minutes ago

Mostly Cloudy
Mostly Cloudy
74.5 °F
Feels Like 74 °F
N
0.0
Wind Variable Wind from SSW

Today
High -- | Low -- °F
--% Chance of Precip.
Yesterday
High -- | Low -- °F
Precip. -- in
6:45 AM 8:06 PM
Waning Gibbous, 91% visible
Pressure 29.98 in
Visibility 5.0 miles
Clouds Mostly Cloudy 10000 ft
Overcast 12000 ft
Heat Index 74 °F
Dew Point 70 °F
Humidity 85%
Rainfall 0.54 in
Snow Depth Not available.
UV 0 out of 12
Pollen 3.40 out of 12
Air Quality Not available.
Flu Activity Not available.
METAR KPMP 022353Z 31005KT 5SM -RA BR BKN100 OVC120 24/22 A2998 RMK AO2 LTG DSNT SE SLP152 P0001 60014 T02390217 10311 20239 50005

More Conditions Fewer Conditions

Pressure 29.98 in
Visibility 5.0 miles
Clouds Mostly Cloudy 10000 ft
Overcast 12000 ft
Heat Index 74 °F
Dew Point 70 °F
Humidity 85%
Rainfall 0.54 in
Snow Depth Not available.
UV 0 out of 12
Pollen 3.40 out of 12
Air Quality Not available.
Flu Activity Not available.
METAR KPMP 022353Z 31005KT 5SM -RA BR BKN100 OVC120 24/22 A2998 RMK AO2 LTG DSNT SE SLP152 P0001 60014 T02390217 10311 20239 50005

More Conditions Fewer Conditions

10-Day Weather Forecast

×

Almanac

Astronomy

Aug. 02, 2015 Rise Set
Actual Time
Civil Twilight
Nautical Twilight
Astronomical Twilight
Moon
Length of Visible Light
Length of Day
Tomorrow will be .
, % of the Moon is Illuminated

Today's Extremes

State Highs State Lows

Community

WunderPhotos

Upload Photos

1,843,474 photos uploaded!

WunderBlogs® & News

Nearby

Air Quality

  Air Quality AQ Index Pollutant
Not available.

Snow Depth

Station Depth Elevation

Earthquake Activity

City Distance Mag. Time & Date
Minimum magnitude displayed is 2.5.

Coastal Water Temperatures

Place Temperature

Stations

Nearby Weather Stations

Station Location Temp. Windchill Dew Point Humidity Wind Precip. Elev Updated Type